< < Back
Terminal Aerodrome Forecast


Current Version              Previous Versions:   1  2  3  4  5  6  7  8  9  

Terminal Aerodrome Forecast

975
FTUS42 KMLB 240200 AAA
TAFMCO
TAF AMD
KMCO 240255Z 2403/2424 20003KT P6SM SKC
      TEMPO 2410/2412 5SM BR FEW015
     FM241500 15007KT P6SM FEW040=



Latest METAR

447
SAUS70 KWBC 241000 RRC
MTRMCO
METAR KMCO 240953Z 00000KT 10SM CLR 19/17 A2996 RMK AO2 SLP144
T01890172


USA.gov is the U.S. government's official web portal to all federal, state and local government web resources and services.